Lamphun, Thailand
Current Conditions -  °F | °C
As of 12:00 PM on Monday 20 Oct 2014 (Local Time) from VTCC Reporting Station
Scattered Clouds Scattered Clouds  
Wind Chill: 88°   Ceiling: Unl
Heat Index: 90°   Visibility: 6mi
Dew Point: 66°   Wind: 3mph
Humidity: 49%   Direction: 150°SSE
Pressure: 29.97"   Gusts: NA
Location:  18.5°N, 99.08°E
Report Text: VTCC 200500Z 15003KT 9000 SCT040 31/19 Q1015 A2998 NOSIG
Loading
Personal Weather Stations






























Interactive Weather Map
Tropical Storm Tracking
New forecast layout! Learn more

10-Day Weather Forecast

Advertisements
Track Severe Weather on mobile